createdAt,value
2023-05-22T00:01:59.302Z,14.37
2023-05-22T00:04:30.016Z,14.35
2023-05-22T00:06:56.653Z,14.28
2023-05-22T00:09:25.467Z,14.28
2023-05-22T00:11:52.264Z,14.30
2023-05-22T00:14:18.787Z,14.26
2023-05-22T00:16:46.169Z,14.26
2023-05-22T00:19:16.612Z,14.20
2023-05-22T00:21:44.081Z,14.24
2023-05-22T00:24:10.679Z,14.19
2023-05-22T00:26:37.161Z,14.05
2023-05-22T00:29:05.679Z,14.18
2023-05-22T00:31:32.090Z,14.17
2023-05-22T00:33:59.160Z,14.18
2023-05-22T00:36:25.723Z,14.15
2023-05-22T00:38:52.143Z,14.08
2023-05-22T00:41:18.849Z,14.08
2023-05-22T00:43:45.568Z,14.11
2023-05-22T00:46:12.597Z,14.03
2023-05-22T00:48:39.119Z,14.04
2023-05-22T00:51:06.705Z,13.94
2023-05-22T00:53:33.668Z,14.01
2023-05-22T00:56:00.981Z,13.95
2023-05-22T00:58:27.726Z,14.01
2023-05-22T01:00:55.556Z,13.99
2023-05-22T01:03:26.872Z,13.93
2023-05-22T01:05:53.907Z,13.93
2023-05-22T01:08:20.600Z,13.95
2023-05-22T01:10:52.388Z,13.89
2023-05-22T01:13:28.730Z,13.88
2023-05-22T01:16:18.794Z,13.89
2023-05-22T01:19:02.706Z,13.80
2023-05-22T01:22:16.405Z,13.86
2023-05-22T01:25:18.066Z,13.87
2023-05-22T01:28:23.053Z,13.75
2023-05-22T01:31:11.429Z,13.80
2023-05-22T01:33:51.369Z,13.74
2023-05-22T01:36:22.444Z,13.67
2023-05-22T01:38:49.580Z,13.66
2023-05-22T01:41:17.006Z,13.68
2023-05-22T01:43:45.493Z,13.62
2023-05-22T01:46:11.972Z,13.67
2023-05-22T01:48:38.416Z,13.55
2023-05-22T01:51:17.626Z,13.58
2023-05-22T01:53:55.189Z,13.57
2023-05-22T01:56:30.785Z,13.54
2023-05-22T01:59:12.804Z,13.45
2023-05-22T02:01:39.957Z,13.50
2023-05-22T02:04:09.723Z,13.42
2023-05-22T02:06:38.287Z,13.43
2023-05-22T02:09:07.007Z,13.36
2023-05-22T02:11:35.846Z,13.41
2023-05-22T02:14:02.844Z,13.39
2023-05-22T02:16:30.267Z,13.35
2023-05-22T02:19:06.499Z,13.38
2023-05-22T02:21:34.645Z,13.18
2023-05-22T02:24:01.980Z,13.21
2023-05-22T02:26:28.796Z,13.21
2023-05-22T02:28:55.248Z,13.27
2023-05-22T02:31:21.773Z,13.29
2023-05-22T02:33:48.531Z,13.24
2023-05-22T02:36:15.065Z,13.20
2023-05-22T02:38:41.533Z,13.15
2023-05-22T02:41:08.365Z,13.09
2023-05-22T02:43:34.754Z,13.04
2023-05-22T02:46:01.344Z,13.06
2023-05-22T02:48:29.245Z,13.09
2023-05-22T02:50:55.781Z,13.05
2023-05-22T02:53:22.157Z,13.02
2023-05-22T02:55:48.611Z,13.02
2023-05-22T02:58:15.050Z,12.97
2023-05-22T03:00:41.594Z,12.94
2023-05-22T03:03:08.301Z,12.93
2023-05-22T03:05:34.810Z,12.94
2023-05-22T03:08:01.487Z,12.95
2023-05-22T03:10:28.039Z,12.89
2023-05-22T03:12:54.528Z,12.92
2023-05-22T03:15:20.930Z,12.86
2023-05-22T03:17:47.387Z,12.88
2023-05-22T03:20:17.115Z,12.90
2023-05-22T03:22:44.552Z,12.86
2023-05-22T03:25:11.021Z,12.81
2023-05-22T03:27:39.989Z,12.77
2023-05-22T03:30:07.145Z,12.68
2023-05-22T03:32:37.334Z,12.75
2023-05-22T03:35:05.233Z,12.74
2023-05-22T03:37:31.686Z,12.80
2023-05-22T03:39:58.138Z,12.75
2023-05-22T03:42:24.567Z,12.75
2023-05-22T03:44:50.981Z,12.71
2023-05-22T03:47:17.438Z,12.73
2023-05-22T03:49:43.827Z,12.66
2023-05-22T03:52:10.661Z,12.76
2023-05-22T03:54:37.063Z,12.69
2023-05-22T03:57:03.637Z,12.68
2023-05-22T03:59:30.026Z,12.67
2023-05-22T04:01:57.984Z,12.62
2023-05-22T04:04:27.137Z,12.70
2023-05-22T04:06:54.013Z,12.64
2023-05-22T04:09:20.434Z,12.65
2023-05-22T04:11:48.663Z,12.70
2023-05-22T04:14:15.089Z,12.72
2023-05-22T04:16:41.474Z,12.83
2023-05-22T04:19:09.497Z,12.84
2023-05-22T04:21:36.661Z,12.83
2023-05-22T04:24:07.012Z,12.91
2023-05-22T04:26:34.011Z,12.93
2023-05-22T04:29:01.194Z,13.01
2023-05-22T04:31:28.132Z,12.99
2023-05-22T04:33:56.031Z,13.15
2023-05-22T04:36:25.986Z,13.22
2023-05-22T04:38:53.117Z,13.30
2023-05-22T04:41:22.628Z,13.33
2023-05-22T04:43:49.345Z,13.38
2023-05-22T04:46:16.114Z,13.54
2023-05-22T04:48:42.572Z,13.61
2023-05-22T04:51:09.683Z,13.73
2023-05-22T04:53:38.507Z,13.84
2023-05-22T04:56:06.019Z,14.04
2023-05-22T04:58:32.600Z,14.19
2023-05-22T05:00:59.242Z,14.33
2023-05-22T05:03:28.380Z,14.50
2023-05-22T05:05:54.898Z,14.62
2023-05-22T05:08:21.294Z,14.77
2023-05-22T05:10:47.739Z,14.99
2023-05-22T05:13:14.126Z,15.10
2023-05-22T05:15:40.583Z,15.26
2023-05-22T05:18:07.059Z,15.43
2023-05-22T05:20:33.556Z,15.59
2023-05-22T05:22:59.990Z,15.83
2023-05-22T05:25:26.522Z,16.17
2023-05-22T05:27:52.916Z,16.39
2023-05-22T05:30:20.503Z,16.65
2023-05-22T05:32:47.247Z,16.84
2023-05-22T05:35:13.731Z,17.06
2023-05-22T05:37:40.131Z,17.14
2023-05-22T05:40:07.224Z,17.32
2023-05-22T05:42:33.705Z,17.44
2023-05-22T05:45:00.128Z,17.63
2023-05-22T05:47:26.640Z,17.81
2023-05-22T05:49:53.247Z,17.90
2023-05-22T05:52:19.644Z,18.14
2023-05-22T05:54:47.508Z,18.30
2023-05-22T05:57:14.958Z,18.30
2023-05-22T05:59:41.362Z,18.23
2023-05-22T06:02:07.777Z,18.63
2023-05-22T06:04:34.168Z,18.73
2023-05-22T06:07:01.841Z,18.85
2023-05-22T06:09:28.336Z,18.86
2023-05-22T06:11:54.765Z,19.08
2023-05-22T06:14:21.359Z,18.97
2023-05-22T06:16:47.815Z,19.21
2023-05-22T06:19:14.867Z,19.41
2023-05-22T06:21:41.327Z,19.60
2023-05-22T06:24:07.740Z,19.45
2023-05-22T06:26:34.207Z,19.73
2023-05-22T06:29:00.812Z,19.97
2023-05-22T06:31:28.076Z,19.72
2023-05-22T06:33:55.247Z,19.52
2023-05-22T06:36:22.058Z,19.55
2023-05-22T06:38:49.556Z,19.58
2023-05-22T06:41:16.032Z,19.73
2023-05-22T06:43:42.402Z,19.81
2023-05-22T06:46:08.871Z,19.85
2023-05-22T06:48:35.998Z,19.86
2023-05-22T06:51:02.886Z,20.04
2023-05-22T06:53:29.301Z,20.01
2023-05-22T06:55:56.378Z,19.99
2023-05-22T06:58:22.798Z,19.88
2023-05-22T07:00:49.200Z,19.87
2023-05-22T07:03:16.049Z,19.86
2023-05-22T07:05:42.494Z,20.05
2023-05-22T07:08:08.977Z,20.11
2023-05-22T07:10:35.387Z,20.41
2023-05-22T07:13:01.825Z,20.64
2023-05-22T07:15:28.234Z,20.58
2023-05-22T07:17:54.716Z,20.58
2023-05-22T07:20:21.259Z,20.66
2023-05-22T07:22:47.669Z,20.80
2023-05-22T07:25:14.151Z,20.83
2023-05-22T07:27:40.880Z,20.85
2023-05-22T07:30:08.054Z,20.87
2023-05-22T07:32:34.595Z,20.84
2023-05-22T07:35:01.036Z,20.69
2023-05-22T07:37:27.602Z,20.68
2023-05-22T07:39:53.989Z,20.61
2023-05-22T07:42:21.693Z,20.53
2023-05-22T07:44:48.164Z,20.57
2023-05-22T07:47:14.559Z,20.51
2023-05-22T07:49:41.084Z,20.46
2023-05-22T07:52:07.713Z,20.43
2023-05-22T07:54:34.162Z,20.39
2023-05-22T07:57:03.434Z,20.22
2023-05-22T07:59:29.874Z,20.21
2023-05-22T08:01:58.282Z,20.38
2023-05-22T08:04:25.353Z,20.31
2023-05-22T08:06:51.820Z,20.32
2023-05-22T08:09:18.681Z,20.26
2023-05-22T08:11:45.099Z,20.36
2023-05-22T08:14:12.004Z,20.48
2023-05-22T08:16:38.611Z,20.47
2023-05-22T08:19:07.050Z,20.57
2023-05-22T08:21:34.360Z,20.60
2023-05-22T08:24:01.569Z,20.58
2023-05-22T08:26:29.473Z,20.67
2023-05-22T08:28:56.498Z,20.74
2023-05-22T08:31:23.156Z,20.80
2023-05-22T08:33:49.659Z,20.93
2023-05-22T08:36:16.296Z,21.03
2023-05-22T08:38:42.753Z,21.20
2023-05-22T08:41:10.329Z,21.25
2023-05-22T08:43:37.033Z,21.21
2023-05-22T08:46:05.030Z,21.28
2023-05-22T08:48:32.700Z,21.33
2023-05-22T08:51:04.075Z,21.41
2023-05-22T08:53:42.647Z,21.52
2023-05-22T08:56:09.277Z,21.32
2023-05-22T08:58:37.659Z,21.45
2023-05-22T09:01:05.422Z,21.67
2023-05-22T09:03:35.231Z,21.66
2023-05-22T09:06:02.187Z,21.61
2023-05-22T09:08:28.937Z,21.52
2023-05-22T09:10:56.321Z,21.50
2023-05-22T09:13:28.204Z,21.56
2023-05-22T09:15:59.675Z,21.54
2023-05-22T09:18:29.890Z,21.58
2023-05-22T09:21:00.399Z,21.61
2023-05-22T09:23:28.052Z,21.54
2023-05-22T09:25:59.433Z,21.63
2023-05-22T09:28:26.412Z,21.49
2023-05-22T09:30:55.131Z,21.44
2023-05-22T09:33:23.121Z,21.62
2023-05-22T09:35:52.587Z,21.91
2023-05-22T09:38:19.647Z,21.86
2023-05-22T09:40:46.211Z,22.00
2023-05-22T09:43:17.783Z,21.97
2023-05-22T09:45:44.437Z,21.95
2023-05-22T09:48:12.554Z,22.00
2023-05-22T09:50:42.060Z,22.05
2023-05-22T09:53:10.196Z,22.23
2023-05-22T09:55:36.975Z,22.09
2023-05-22T09:58:06.526Z,22.10
2023-05-22T10:00:34.517Z,22.14
2023-05-22T10:03:24.850Z,22.15
2023-05-22T10:05:54.385Z,22.06
2023-05-22T10:08:27.635Z,22.22
2023-05-22T10:10:54.222Z,22.13
2023-05-22T10:13:21.502Z,22.17
2023-05-22T10:15:49.813Z,22.30
2023-05-22T10:18:17.377Z,22.35
2023-05-22T10:20:46.779Z,22.29
2023-05-22T10:23:16.184Z,22.26
2023-05-22T10:25:43.719Z,22.32
2023-05-22T10:28:11.193Z,22.28
2023-05-22T10:30:41.023Z,22.39
2023-05-22T10:33:14.461Z,22.27
2023-05-22T10:36:04.056Z,22.30
2023-05-22T10:38:50.495Z,22.27
2023-05-22T10:41:17.452Z,22.25
2023-05-22T10:43:48.300Z,22.18
2023-05-22T10:46:15.059Z,22.20
2023-05-22T10:48:47.938Z,22.13
2023-05-22T10:51:17.975Z,22.10
2023-05-22T10:53:45.378Z,21.97
2023-05-22T10:56:13.652Z,21.93
2023-05-22T10:58:43.753Z,21.91
2023-05-22T11:01:21.160Z,21.90
2023-05-22T11:03:56.486Z,21.86
2023-05-22T11:06:50.016Z,21.84
2023-05-22T11:09:31.617Z,21.79
2023-05-22T11:12:17.086Z,21.75
2023-05-22T11:14:56.870Z,21.69
2023-05-22T11:17:27.819Z,21.64
2023-05-22T11:20:01.531Z,21.60
2023-05-22T11:22:42.391Z,21.49
2023-05-22T11:25:15.015Z,21.46
2023-05-22T11:27:41.666Z,21.46
2023-05-22T11:30:12.533Z,21.38
2023-05-22T11:32:41.226Z,21.38
2023-05-22T11:35:10.565Z,21.45
2023-05-22T11:37:40.982Z,21.45
2023-05-22T11:40:09.732Z,21.41
2023-05-22T11:42:37.604Z,21.38
2023-05-22T11:45:05.131Z,21.40
2023-05-22T11:47:31.792Z,21.37
2023-05-22T11:49:59.757Z,21.44
2023-05-22T11:52:30.019Z,21.44
2023-05-22T11:54:56.429Z,21.47
2023-05-22T11:57:22.910Z,21.50
2023-05-22T11:59:49.512Z,21.52
2023-05-22T12:02:16.768Z,21.68
2023-05-22T12:04:43.174Z,21.68
2023-05-22T12:07:09.748Z,21.84
2023-05-22T12:09:39.312Z,21.84
2023-05-22T12:12:05.878Z,21.83
2023-05-22T12:14:32.317Z,21.77
2023-05-22T12:16:59.347Z,21.83
2023-05-22T12:19:27.163Z,21.86
2023-05-22T12:21:54.075Z,21.90
2023-05-22T12:24:26.350Z,22.00
2023-05-22T12:26:56.563Z,22.02
2023-05-22T12:29:23.463Z,22.03
2023-05-22T12:31:50.732Z,21.98
2023-05-22T12:34:18.645Z,22.10
2023-05-22T12:36:46.739Z,21.98
2023-05-22T12:39:17.958Z,21.98
2023-05-22T12:41:45.896Z,21.96
2023-05-22T12:44:12.956Z,22.05
2023-05-22T12:46:41.120Z,22.16
2023-05-22T12:49:08.108Z,22.47
2023-05-22T12:51:34.888Z,22.57
2023-05-22T12:54:02.712Z,22.66
2023-05-22T12:56:30.307Z,22.63
2023-05-22T12:58:59.809Z,22.59
2023-05-22T13:01:26.380Z,22.55
2023-05-22T13:03:52.844Z,22.45
2023-05-22T13:06:20.382Z,22.44
2023-05-22T13:08:46.836Z,22.28
2023-05-22T13:11:13.277Z,22.31
2023-05-22T13:13:39.947Z,22.34
2023-05-22T13:16:06.486Z,22.22
2023-05-22T13:18:32.938Z,22.22
2023-05-22T13:21:00.246Z,22.19
2023-05-22T13:23:26.814Z,22.11
2023-05-22T13:25:53.283Z,22.01
2023-05-22T13:28:19.846Z,22.09
2023-05-22T13:30:46.301Z,22.08
2023-05-22T13:33:13.543Z,22.06
2023-05-22T13:35:40.246Z,22.11
2023-05-22T13:38:07.129Z,22.10
2023-05-22T13:40:33.570Z,22.18
2023-05-22T13:43:00.052Z,22.20
2023-05-22T13:45:27.583Z,22.19
2023-05-22T13:47:54.203Z,22.22
2023-05-22T13:50:20.658Z,22.32
2023-05-22T13:52:47.141Z,22.18
2023-05-22T13:55:13.694Z,22.03
2023-05-22T13:57:40.625Z,22.06
2023-05-22T14:00:08.972Z,22.07
2023-05-22T14:02:35.748Z,22.14
2023-05-22T14:05:02.281Z,22.18
2023-05-22T14:07:28.699Z,22.26
2023-05-22T14:09:55.176Z,22.41
2023-05-22T14:12:21.608Z,22.54
2023-05-22T14:14:48.066Z,22.49
2023-05-22T14:17:14.513Z,22.55
2023-05-22T14:19:41.002Z,22.83
2023-05-22T14:22:07.424Z,22.80
2023-05-22T14:24:33.840Z,22.86
2023-05-22T14:27:00.380Z,22.85
2023-05-22T14:29:26.811Z,22.87
2023-05-22T14:31:55.006Z,22.98
2023-05-22T14:34:21.428Z,22.87
2023-05-22T14:36:48.270Z,22.99
2023-05-22T14:39:14.677Z,23.03
2023-05-22T14:41:41.096Z,23.19
2023-05-22T14:44:07.539Z,23.12
2023-05-22T14:46:34.160Z,23.18
2023-05-22T14:49:00.583Z,23.09
2023-05-22T14:51:27.012Z,23.04
2023-05-22T14:53:53.404Z,23.02
2023-05-22T14:56:19.837Z,22.93
2023-05-22T14:58:46.236Z,22.87
2023-05-22T15:01:12.651Z,22.90
2023-05-22T15:03:39.136Z,22.99
2023-05-22T15:06:05.980Z,22.94
2023-05-22T15:08:32.523Z,22.90
2023-05-22T15:10:58.934Z,22.78
2023-05-22T15:13:25.337Z,22.82
2023-05-22T15:15:51.741Z,22.67
2023-05-22T15:18:19.701Z,22.64
2023-05-22T15:20:46.230Z,22.63
2023-05-22T15:23:12.685Z,22.69
2023-05-22T15:25:39.333Z,22.58
2023-05-22T15:28:07.151Z,22.69
2023-05-22T15:30:38.795Z,22.62
2023-05-22T15:33:05.484Z,22.52
2023-05-22T15:35:32.397Z,22.45
2023-05-22T15:37:59.112Z,22.44
2023-05-22T15:40:25.706Z,22.33
2023-05-22T15:42:53.045Z,22.25
2023-05-22T15:45:19.973Z,22.04
2023-05-22T15:47:47.104Z,22.16
2023-05-22T15:50:13.623Z,22.02
2023-05-22T15:52:40.255Z,21.81
2023-05-22T15:55:07.014Z,21.77
2023-05-22T15:57:34.174Z,21.60
2023-05-22T16:00:00.593Z,21.56
2023-05-22T16:02:27.109Z,21.42
2023-05-22T16:04:53.544Z,21.33
2023-05-22T16:07:20.179Z,21.30
2023-05-22T16:09:46.639Z,21.11
2023-05-22T16:12:13.131Z,21.07
2023-05-22T16:14:40.207Z,21.00
2023-05-22T16:17:07.079Z,20.82
2023-05-22T16:19:33.754Z,20.75
2023-05-22T16:22:00.379Z,20.72
2023-05-22T16:24:26.975Z,20.67
2023-05-22T16:26:53.420Z,20.67
2023-05-22T16:29:23.196Z,20.60
2023-05-22T16:31:49.785Z,20.60
2023-05-22T16:34:16.305Z,20.51
2023-05-22T16:36:42.811Z,20.50
2023-05-22T16:39:09.463Z,20.47
2023-05-22T16:41:38.931Z,20.55
2023-05-22T16:44:05.479Z,20.47
2023-05-22T16:46:32.000Z,20.40
2023-05-22T16:48:58.440Z,20.43
2023-05-22T16:51:24.969Z,20.41
2023-05-22T16:53:51.595Z,20.33
2023-05-22T16:56:20.392Z,20.43
2023-05-22T16:58:47.405Z,20.35
2023-05-22T17:01:14.012Z,20.32
2023-05-22T17:03:40.709Z,20.31
2023-05-22T17:06:08.781Z,20.27
2023-05-22T17:08:35.202Z,20.21
2023-05-22T17:11:01.627Z,20.20
2023-05-22T17:13:28.056Z,20.20
2023-05-22T17:15:54.438Z,20.10
2023-05-22T17:18:21.241Z,20.00
2023-05-22T17:20:51.631Z,20.01
2023-05-22T17:23:18.365Z,19.98
2023-05-22T17:25:46.690Z,19.93
2023-05-22T17:28:14.558Z,19.87
2023-05-22T17:30:42.476Z,19.80
2023-05-22T17:33:09.374Z,19.81
2023-05-22T17:35:35.795Z,19.67
2023-05-22T17:38:02.243Z,19.73
2023-05-22T17:40:40.477Z,19.77
2023-05-22T17:43:11.006Z,19.66
2023-05-22T17:45:37.438Z,19.66
2023-05-22T17:48:03.948Z,19.60
2023-05-22T17:50:30.358Z,19.77
2023-05-22T17:52:56.770Z,19.76
2023-05-22T17:55:23.151Z,19.66
2023-05-22T17:57:49.808Z,19.67
2023-05-22T18:00:16.912Z,19.52
2023-05-22T18:02:44.153Z,19.59
2023-05-22T18:05:11.094Z,19.61
2023-05-22T18:07:37.582Z,19.60
2023-05-22T18:10:05.180Z,19.60
2023-05-22T18:12:32.360Z,19.54
2023-05-22T18:14:59.135Z,19.50
2023-05-22T18:17:25.614Z,19.42
2023-05-22T18:19:52.066Z,19.46
2023-05-22T18:22:18.550Z,19.41
2023-05-22T18:24:44.955Z,19.31
2023-05-22T18:27:11.425Z,19.28
2023-05-22T18:29:39.450Z,19.27
2023-05-22T18:32:09.250Z,19.34
2023-05-22T18:34:37.336Z,19.23
2023-05-22T18:37:04.492Z,19.11
2023-05-22T18:39:31.174Z,19.17
2023-05-22T18:41:58.447Z,19.05
2023-05-22T18:44:24.856Z,19.05
2023-05-22T18:46:51.324Z,19.01
2023-05-22T18:49:17.748Z,19.02
2023-05-22T18:51:44.348Z,18.93
2023-05-22T18:54:10.781Z,18.92
2023-05-22T18:56:37.224Z,18.92
2023-05-22T18:59:03.644Z,18.90
2023-05-22T19:01:30.761Z,18.81
2023-05-22T19:03:57.252Z,18.88
2023-05-22T19:06:25.857Z,18.75
2023-05-22T19:08:52.859Z,18.78
2023-05-22T19:11:19.304Z,18.63
2023-05-22T19:13:45.741Z,18.60
2023-05-22T19:16:13.687Z,18.48
2023-05-22T19:18:40.108Z,18.45
2023-05-22T19:21:06.541Z,18.44
2023-05-22T19:23:33.106Z,18.48
2023-05-22T19:26:00.524Z,18.48
2023-05-22T19:28:26.966Z,18.33
2023-05-22T19:30:53.898Z,18.36
2023-05-22T19:33:24.638Z,18.36
2023-05-22T19:35:51.327Z,18.39
2023-05-22T19:38:17.940Z,18.36
2023-05-22T19:40:44.419Z,18.34
2023-05-22T19:43:11.127Z,18.38
2023-05-22T19:45:37.770Z,18.37
2023-05-22T19:48:04.221Z,18.28
2023-05-22T19:50:30.720Z,18.19
2023-05-22T19:52:57.182Z,18.17
2023-05-22T19:55:23.584Z,18.20
2023-05-22T19:57:50.021Z,18.17
2023-05-22T20:00:16.762Z,18.11
2023-05-22T20:02:43.361Z,18.14
2023-05-22T20:05:12.954Z,18.06
2023-05-22T20:07:40.028Z,18.09
2023-05-22T20:10:07.051Z,18.06
2023-05-22T20:12:33.749Z,17.93
2023-05-22T20:15:00.246Z,17.95
2023-05-22T20:17:26.745Z,17.87
2023-05-22T20:19:54.035Z,17.93
2023-05-22T20:22:20.501Z,17.88
2023-05-22T20:24:47.266Z,17.87
2023-05-22T20:27:13.718Z,17.93
2023-05-22T20:29:40.110Z,17.91
2023-05-22T20:32:06.959Z,17.95
2023-05-22T20:34:33.791Z,17.79
2023-05-22T20:37:00.446Z,17.72
2023-05-22T20:39:26.835Z,17.75
2023-05-22T20:41:54.319Z,17.78
2023-05-22T20:44:24.660Z,17.83
2023-05-22T20:46:54.250Z,17.71
2023-05-22T20:49:21.153Z,17.68
2023-05-22T20:51:48.557Z,17.60
2023-05-22T20:54:14.954Z,17.54
2023-05-22T20:56:41.470Z,17.53
2023-05-22T20:59:07.936Z,17.53
2023-05-22T21:01:35.484Z,17.56
2023-05-22T21:04:02.568Z,17.54
2023-05-22T21:06:29.147Z,17.45
2023-05-22T21:08:59.641Z,17.40
2023-05-22T21:11:26.742Z,17.35
2023-05-22T21:13:53.161Z,17.35
2023-05-22T21:16:19.581Z,17.38
2023-05-22T21:18:46.078Z,17.37
2023-05-22T21:21:15.278Z,17.33
2023-05-22T21:23:42.930Z,17.34
2023-05-22T21:26:09.398Z,17.21
2023-05-22T21:28:36.499Z,17.12
2023-05-22T21:31:02.943Z,17.13
2023-05-22T21:33:29.394Z,17.08
2023-05-22T21:35:55.818Z,17.10
2023-05-22T21:38:22.222Z,16.91
2023-05-22T21:40:48.740Z,16.96
2023-05-22T21:43:15.346Z,16.92
2023-05-22T21:45:41.844Z,16.97
2023-05-22T21:48:08.277Z,16.95
2023-05-22T21:50:34.872Z,16.92
2023-05-22T21:53:01.396Z,16.88
2023-05-22T21:55:27.817Z,16.78
2023-05-22T21:57:55.567Z,16.72
2023-05-22T22:00:21.961Z,16.66
2023-05-22T22:02:48.538Z,16.75
2023-05-22T22:05:15.030Z,16.63
2023-05-22T22:07:41.433Z,16.66
2023-05-22T22:10:08.081Z,16.68
2023-05-22T22:12:34.508Z,16.72
2023-05-22T22:15:01.043Z,16.61
2023-05-22T22:17:27.505Z,16.54
2023-05-22T22:19:56.792Z,16.57
2023-05-22T22:22:23.281Z,16.51
2023-05-22T22:24:49.820Z,16.55
2023-05-22T22:27:16.364Z,16.42
2023-05-22T22:29:43.610Z,16.42
2023-05-22T22:32:10.086Z,16.35
2023-05-22T22:34:36.614Z,16.27
2023-05-22T22:37:03.014Z,16.29
2023-05-22T22:39:29.444Z,16.25
2023-05-22T22:41:55.876Z,16.17
2023-05-22T22:44:22.291Z,16.29
2023-05-22T22:46:49.538Z,16.17
2023-05-22T22:49:15.979Z,16.20
2023-05-22T22:51:42.895Z,16.13
2023-05-22T22:54:09.449Z,16.08
2023-05-22T22:56:36.146Z,16.21
2023-05-22T22:59:02.757Z,16.09
2023-05-22T23:01:29.202Z,16.01
2023-05-22T23:03:55.683Z,16.07
2023-05-22T23:06:23.747Z,16.09
2023-05-22T23:08:50.261Z,16.21
2023-05-22T23:11:16.769Z,16.25
2023-05-22T23:13:43.560Z,16.24
2023-05-22T23:16:10.055Z,16.25
2023-05-22T23:18:36.483Z,16.19
2023-05-22T23:21:02.955Z,16.28
2023-05-22T23:23:29.380Z,16.21
2023-05-22T23:25:58.641Z,16.13
2023-05-22T23:28:25.554Z,16.18
2023-05-22T23:30:52.400Z,16.14
2023-05-22T23:33:18.880Z,16.21
2023-05-22T23:35:45.837Z,16.19
2023-05-22T23:38:12.225Z,16.28
2023-05-22T23:40:38.616Z,16.26
2023-05-22T23:43:04.983Z,16.16
2023-05-22T23:45:31.619Z,16.24
2023-05-22T23:47:58.087Z,16.18
2023-05-22T23:50:24.514Z,16.26
2023-05-22T23:52:50.955Z,16.11
2023-05-22T23:55:17.377Z,16.20
2023-05-22T23:57:43.810Z,16.28
